Time;durP1;ratioP1;P1;durP2;ratioP2;P2;SDS_P1;SDS_P2;PMS_P1;PMS_P2;Temp;Humidity;BMP_temperature;BMP_pressure;BME280_temperature;BME280_humidity;BME280_pressure;Samples;Min_cycle;Max_cycle;Signal;HPM_P1;HPM_P2
2022/02/05 00:14:10;;;;;;;6.60;3.00;;;;;;;18.97;41.29;101141.63;5009172;28;20096;-64
2022/02/05 00:43:04;;;;;;;4.53;2.75;;;;;;;18.71;41.71;101157.66;5012762;28;20347;-64
2022/02/05 00:45:33;;;;;;;8.60;2.88;;;;;;;18.62;41.56;101153.31;5014534;28;20917;-64
2022/02/05 00:48:01;;;;;;;8.20;3.67;;;;;;;18.69;41.66;101158.81;5027625;28;20496;-64
2022/02/05 00:50:28;;;;;;;5.00;2.80;;;;;;;18.70;41.61;101166.56;5015303;28;20049;-64
2022/02/05 00:53:02;;;;;;;7.72;2.92;;;;;;;18.67;41.69;101166.88;5013667;28;20041;-64
2022/02/05 00:55:32;;;;;;;9.98;3.53;;;;;;;18.70;41.60;101177.09;5015954;28;20056;-64
2022/02/05 00:58:02;;;;;;;6.47;3.00;;;;;;;18.69;41.44;101193.91;5013725;28;20046;-64
2022/02/05 01:00:29;;;;;;;5.30;2.70;;;;;;;18.64;41.59;101193.56;5017825;28;20529;-64
2022/02/05 01:02:55;;;;;;;7.43;2.95;;;;;;;18.62;41.63;101198.16;5015011;28;20088;-64
2022/02/05 01:05:21;;;;;;;6.22;3.20;;;;;;;18.64;41.55;101213.84;5022092;28;20033;-64
2022/02/05 01:07:47;;;;;;;7.50;3.28;;;;;;;18.57;41.63;101200.47;5015357;28;20069;-66
2022/02/05 01:10:14;;;;;;;5.40;2.85;;;;;;;18.60;41.68;101208.03;5022957;28;20112;-66
2022/02/05 01:12:44;;;;;;;7.38;3.08;;;;;;;18.62;41.56;101199.97;5015571;28;20038;-66
2022/02/05 01:15:11;;;;;;;7.68;2.80;;;;;;;18.58;41.63;101201.28;5020325;28;20124;-66
2022/02/05 01:17:45;;;;;;;6.57;2.83;;;;;;;18.57;41.79;101194.34;5015601;28;20384;-66
2022/02/05 01:22:50;;;;;;;5.60;3.10;;;;;;;18.56;41.57;101205.91;5013518;28;20498;-66
2022/02/05 01:25:20;;;;;;;4.88;2.90;;;;;;;18.51;41.75;101218.75;5018070;28;20404;-64
2022/02/05 01:27:55;;;;;;;8.75;2.97;;;;;;;18.52;41.82;101223.03;5019278;28;20037;-66
2022/02/05 01:30:27;;;;;;;4.75;2.50;;;;;;;18.44;41.44;101210.63;5016856;28;20156;-64
2022/02/05 01:33:10;;;;;;;5.13;2.80;;;;;;;18.52;41.71;101230.94;5023202;28;20045;-65
2022/02/05 01:49:16;;;;;;;7.65;2.85;;;;;;;18.45;41.59;101243.94;5022740;28;20275;-66
2022/02/05 01:55:07;;;;;;;7.95;2.95;;;;;;;18.39;41.70;101247.22;5020412;28;20084;-66
2022/02/05 01:57:16;;;;;;;7.97;2.85;;;;;;;18.40;41.78;101259.41;5012880;28;20048;-66
2022/02/05 02:04:58;;;;;;;9.30;2.63;;;;;;;18.34;41.68;101273.25;5014222;28;20045;-66
2022/02/05 02:12:42;;;;;;;7.68;2.72;;;;;;;18.39;41.70;101276.22;5015106;28;20042;-66
2022/02/05 02:15:22;;;;;;;7.53;2.88;;;;;;;18.32;41.88;101278.69;5017667;28;20049;-66
2022/02/05 02:21:10;;;;;;;5.38;2.50;;;;;;;18.35;41.58;101290.72;5014373;28;20057;-64
2022/02/05 02:24:03;;;;;;;7.00;2.95;;;;;;;18.36;41.69;101292.38;5011975;28;20040;-66
2022/02/05 02:29:06;;;;;;;7.30;2.80;;;;;;;18.34;41.76;101296.97;5017971;28;20058;-66
2022/02/05 02:31:37;;;;;;;9.52;3.10;;;;;;;18.17;41.77;101285.53;5020611;28;20486;-66
2022/02/05 02:34:07;;;;;;;4.60;2.72;;;;;;;18.33;41.56;101304.06;5011648;28;20040;-66
2022/02/05 02:36:39;;;;;;;5.03;2.50;;;;;;;18.31;41.71;101300.75;5023314;28;20096;-66
2022/02/05 02:39:13;;;;;;;7.50;2.60;;;;;;;18.33;41.63;101305.88;5017182;28;20120;-66
2022/02/05 02:41:52;;;;;;;4.82;2.60;;;;;;;18.27;41.63;101304.66;5011957;28;20156;-66
2022/02/05 02:44:18;;;;;;;7.32;2.63;;;;;;;18.21;41.79;101289.50;5013830;28;20046;-66
2022/02/05 02:46:43;;;;;;;6.82;2.65;;;;;;;18.26;41.64;101304.81;5021816;28;20106;-66
2022/02/05 02:49:13;;;;;;;6.22;2.85;;;;;;;18.31;41.77;101310.44;5017085;28;20044;-66
2022/02/05 02:57:25;;;;;;;5.85;2.83;;;;;;;18.24;41.49;101320.81;5035148;28;20399;-64
2022/02/05 02:59:54;;;;;;;6.20;2.55;;;;;;;18.27;41.76;101324.94;5010629;28;20029;-66
2022/02/05 03:02:23;;;;;;;7.03;2.70;;;;;;;18.27;41.81;101328.41;5014571;28;20037;-66
2022/02/05 03:04:49;;;;;;;6.18;2.72;;;;;;;18.22;41.82;101322.78;5018282;28;20037;-66
2022/02/05 03:07:15;;;;;;;5.30;2.40;;;;;;;18.17;41.98;101325.06;5016057;28;20455;-65
2022/02/05 03:09:42;;;;;;;6.00;2.83;;;;;;;18.22;41.60;101337.78;5020084;28;20034;-65
2022/02/05 03:12:08;;;;;;;6.65;3.15;;;;;;;18.21;41.80;101341.38;5011803;28;20061;-65
2022/02/05 03:14:34;;;;;;;6.93;2.80;;;;;;;18.24;41.72;101346.34;5020273;28;20044;-65
2022/02/05 03:17:14;;;;;;;6.43;2.72;;;;;;;18.21;41.56;101344.84;5013500;28;20148;-65
2022/02/05 03:19:39;;;;;;;;;;;;;;;18.21;41.72;101350.13;5018220;28;20057;-65
2022/02/05 03:22:05;;;;;;;5.53;3.47;;;;;;;18.17;41.77;101354.06;5010760;28;20891;-65
2022/02/05 03:24:30;;;;;;;8.35;2.75;;;;;;;18.21;41.71;101358.03;5016412;28;20036;-65
2022/02/05 03:26:56;;;;;;;6.82;3.22;;;;;;;18.21;41.84;101358.03;5010713;28;20567;-65
2022/02/05 03:29:21;;;;;;;7.65;2.70;;;;;;;18.20;41.66;101358.19;5019330;28;20041;-66
2022/02/05 03:31:47;;;;;;;11.95;2.75;;;;;;;18.04;41.88;101335.19;5012595;28;20046;-65
2022/02/05 03:34:13;;;;;;;7.55;2.75;;;;;;;18.17;41.86;101363.78;5016214;28;20033;-65
2022/02/05 03:36:40;;;;;;;6.82;2.50;;;;;;;18.17;41.82;101361.16;5018306;28;20052;-66
2022/02/05 03:39:06;;;;;;;6.32;2.63;;;;;;;18.15;41.91;101369.22;5014546;28;20149;-66
2022/02/05 03:41:32;;;;;;;6.63;2.72;;;;;;;18.17;41.69;101363.78;5017761;28;20041;-65
2022/02/05 03:43:58;;;;;;;8.40;2.75;;;;;;;18.16;41.78;101370.03;5015147;28;20048;-65
2022/02/05 03:46:24;;;;;;;4.75;2.60;;;;;;;18.18;41.94;101375.97;5018207;28;20045;-65
2022/02/05 03:48:49;;;;;;;10.27;2.88;;;;;;;18.17;41.63;101376.97;5015610;28;20053;-65
2022/02/05 03:51:15;;;;;;;6.32;2.72;;;;;;;18.17;41.76;101375.16;5016337;28;20036;-65
2022/02/05 03:53:41;;;;;;;6.55;2.60;;;;;;;18.15;41.59;101387.66;5010571;28;20415;-65
2022/02/05 03:56:06;;;;;;;5.85;2.22;;;;;;;18.11;41.81;101386.28;5018523;28;20038;-65
2022/02/05 03:58:32;;;;;;;5.85;2.70;;;;;;;18.09;41.92;101394.34;5015508;28;20462;-65
2022/02/05 04:00:57;;;;;;;5.38;2.80;;;;;;;18.10;41.71;101389.91;5016274;28;20149;-65
2022/02/05 04:03:23;;;;;;;12.23;3.15;;;;;;;18.10;41.93;101400.44;5016482;28;20465;-66
2022/02/05 04:05:48;;;;;;;7.13;3.00;;;;;;;18.08;42.00;101402.41;5015635;28;20487;-65
2022/02/05 04:08:15;;;;;;;7.03;2.55;;;;;;;18.07;42.00;101406.03;5013669;28;20172;-66
2022/02/05 04:10:52;;;;;;;10.05;3.00;;;;;;;18.07;41.84;101412.13;5009374;28;20052;-66
2022/02/05 04:18:48;;;;;;;5.68;2.60;;;;;;;18.08;41.84;101407.69;5016199;28;20132;-66
2022/02/05 04:21:14;;;;;;;6.82;2.85;;;;;;;18.05;41.62;101414.09;5012987;28;20044;-65
2022/02/05 04:23:40;;;;;;;7.15;2.50;;;;;;;18.04;41.94;101416.88;5013863;28;20119;-66
2022/02/05 04:26:06;;;;;;;7.60;2.78;;;;;;;18.13;41.52;101415.94;5011931;28;20136;-65
2022/02/05 04:28:32;;;;;;;7.70;3.15;;;;;;;18.07;41.70;101425.31;5013686;28;20053;-65
2022/02/05 04:30:57;;;;;;;6.85;2.70;;;;;;;18.07;41.59;101427.94;5013988;28;20637;-65
2022/02/05 04:33:23;;;;;;;5.90;2.70;;;;;;;18.07;41.77;101425.31;5016650;28;20045;-65
2022/02/05 04:35:48;;;;;;;6.57;2.40;;;;;;;18.03;41.79;101431.06;5021721;28;20053;-65
2022/02/05 04:38:15;;;;;;;9.20;2.72;;;;;;;18.02;41.65;101432.03;5018836;28;20038;-65
2022/02/05 04:40:49;;;;;;;5.18;2.60;;;;;;;18.02;41.70;101443.41;5023527;28;20059;-65
2022/02/05 04:43:33;;;;;;;5.20;2.15;;;;;;;18.02;41.70;101438.13;5014874;28;20050;-66
2022/02/05 04:49:00;;;;;;;6.13;2.92;;;;;;;18.04;41.65;101456.41;5016668;28;20038;-66
2022/02/05 04:59:51;;;;;;;6.57;2.60;;;;;;;17.96;41.82;101474.81;5021003;28;20048;-66
2022/02/05 05:10:41;;;;;;;9.77;2.88;;;;;;;17.91;41.64;101483.16;5019406;28;20701;-66
2022/02/05 05:13:17;;;;;;;8.30;2.80;;;;;;;17.96;41.70;101495.91;5017823;28;20368;-65
2022/02/05 05:20:57;;;;;;;4.88;1.75;;;;;;;17.91;41.83;101492.88;5017023;28;20117;-65
2022/02/05 05:23:23;;;;;;;4.07;2.33;;;;;;;17.89;41.75;101493.00;5018727;28;20034;-65
2022/02/05 05:25:49;;;;;;;4.80;2.00;;;;;;;17.93;41.80;101499.63;5017585;28;20457;-66
2022/02/05 05:28:15;;;;;;;7.88;2.63;;;;;;;17.91;42.00;101506.03;5021974;28;20036;-65
2022/02/05 05:30:40;;;;;;;4.70;2.25;;;;;;;17.85;42.02;101506.66;5015855;28;20095;-65
2022/02/05 05:33:07;;;;;;;5.55;2.75;;;;;;;17.90;41.95;101504.38;5022083;28;20036;-63
2022/02/05 05:35:32;;;;;;;4.90;2.10;;;;;;;17.83;42.07;101509.44;5018920;28;20349;-65
2022/02/05 05:37:58;;;;;;;5.20;2.10;;;;;;;17.83;41.91;101500.69;5016161;28;20462;-66
2022/02/05 05:40:23;;;;;;;5.53;2.22;;;;;;;17.86;42.02;101503.03;5018259;28;20057;-65
2022/02/05 05:42:59;;;;;;;4.53;1.90;;;;;;;17.84;42.01;101510.25;5015682;28;20033;-66
2022/02/05 05:48:03;;;;;;;6.47;2.67;;;;;;;17.73;42.20;101501.59;5011472;28;21389;-65
2022/02/05 05:53:11;;;;;;;5.78;1.80;;;;;;;17.85;42.09;101522.47;5015673;28;20037;-65
2022/02/05 05:55:42;;;;;;;5.03;2.38;;;;;;;17.85;42.04;101517.19;5017111;28;20484;-66
2022/02/05 05:58:08;;;;;;;6.53;2.25;;;;;;;17.90;42.00;101518.38;5016527;28;20045;-65
2022/02/05 06:00:34;;;;;;;4.47;1.90;;;;;;;18.11;41.55;101523.34;5021923;28;20099;-66
2022/02/05 06:03:02;;;;;;;6.90;1.92;;;;;;;18.18;41.72;101519.16;5017859;28;20040;-66
2022/02/05 06:05:27;;;;;;;7.18;2.10;;;;;;;18.42;41.33;101521.13;5016633;28;20170;-65
2022/02/05 06:07:53;;;;;;;6.35;2.58;;;;;;;18.55;41.25;101520.75;5017337;28;20045;-65
2022/02/05 06:10:18;;;;;;;5.00;2.17;;;;;;;18.68;40.98;101522.03;5036301;28;20456;-63
2022/02/05 06:12:44;;;;;;;3.90;1.80;;;;;;;18.78;41.01;101519.28;5018816;28;20118;-65
2022/02/05 06:15:10;;;;;;;4.53;1.50;;;;;;;18.94;40.84;101523.81;5017998;28;20069;-66
2022/02/05 06:17:36;;;;;;;5.65;2.13;;;;;;;19.00;40.71;101523.19;5016744;28;20148;-65
2022/02/05 06:20:02;;;;;;;4.32;1.80;;;;;;;19.11;40.28;101514.16;5017517;28;20057;-65
2022/02/05 06:22:28;;;;;;;5.93;1.98;;;;;;;19.22;40.37;101517.38;5017281;28;20076;-66
2022/02/05 06:24:53;;;;;;;5.15;2.10;;;;;;;19.34;40.07;101525.81;5014939;28;20041;-66
2022/02/05 06:27:19;;;;;;;5.05;1.92;;;;;;;19.47;40.09;101523.56;5023296;28;20430;-65
2022/02/05 06:29:44;;;;;;;3.92;1.80;;;;;;;19.57;39.95;101528.75;5026481;28;20045;-65
2022/02/05 06:32:10;;;;;;;5.10;1.88;;;;;;;19.67;39.78;101525.94;5020882;28;20034;-65
2022/02/05 06:34:36;;;;;;;9.10;2.33;;;;;;;19.68;39.79;101536.34;5014029;28;20038;-65
2022/02/05 06:37:01;;;;;;;6.78;2.33;;;;;;;19.79;39.69;101535.22;5013260;28;20053;-65
2022/02/05 06:39:27;;;;;;;3.00;1.63;;;;;;;19.90;39.34;101548.94;5016913;28;20461;-65
2022/02/05 06:41:52;;;;;;;5.25;2.20;;;;;;;19.88;39.52;101547.44;5019445;28;20092;-65
2022/02/05 06:44:18;;;;;;;3.17;1.70;;;;;;;19.83;39.57;101540.03;5020785;28;20037;-65
2022/02/05 06:46:44;;;;;;;6.50;1.88;;;;;;;19.77;39.64;101553.91;5014765;28;20323;-66
2022/02/05 06:49:10;;;;;;;3.80;1.80;;;;;;;19.72;39.79;101556.16;5020806;28;20033;-65
2022/02/05 06:51:35;;;;;;;4.82;2.15;;;;;;;19.64;39.99;101564.09;5011601;28;20554;-66
2022/02/05 06:54:01;;;;;;;3.60;1.85;;;;;;;19.61;40.04;101567.06;5019927;28;20572;-66
2022/02/05 06:56:27;;;;;;;4.78;1.73;;;;;;;19.54;40.21;101574.78;5012231;28;20041;-65
2022/02/05 06:58:53;;;;;;;7.18;2.20;;;;;;;19.58;40.11;101570.03;5017932;28;20421;-66
2022/02/05 07:01:18;;;;;;;3.15;1.52;;;;;;;19.59;40.16;101572.50;5013094;28;20104;-65
2022/02/05 07:03:44;;;;;;;3.92;2.10;;;;;;;19.67;39.96;101587.53;5014613;28;20051;-65
2022/02/05 07:06:10;;;;;;;4.97;2.00;;;;;;;19.78;39.87;101584.63;5014321;28;20403;-65
2022/02/05 07:08:35;;;;;;;5.00;1.70;;;;;;;19.79;39.79;101591.56;5016504;28;20390;-66
2022/02/05 07:11:01;;;;;;;5.07;1.85;;;;;;;19.81;39.75;101583.47;5014142;28;20094;-64
2022/02/05 07:13:26;;;;;;;12.80;2.47;;;;;;;19.75;39.82;101592.00;5015667;28;20056;-65
2022/02/05 07:16:02;;;;;;;6.40;2.20;;;;;;;19.64;39.96;101582.59;5019061;28;20056;-66
2022/02/05 07:21:37;;;;;;;6.57;2.45;;;;;;;19.70;39.77;101584.56;5011366;28;20053;-65
2022/02/05 07:29:18;;;;;;;7.05;2.10;;;;;;;19.92;39.26;101596.34;5010072;28;20603;-66
2022/02/05 07:31:53;;;;;;;5.45;2.20;;;;;;;19.94;39.31;101602.34;5020072;28;20069;-66
2022/02/05 07:34:27;;;;;;;6.00;2.45;;;;;;;19.87;39.52;101607.41;5017406;28;20047;-66
2022/02/05 07:36:58;;;;;;;3.30;1.60;;;;;;;19.85;39.41;101614.69;5016754;28;20032;-65
2022/02/05 07:39:24;;;;;;;6.82;1.90;;;;;;;19.85;39.41;101613.84;5013989;28;20547;-66
2022/02/05 07:41:50;;;;;;;4.43;1.75;;;;;;;19.86;39.57;101618.97;5018647;28;20047;-65
2022/02/05 07:44:16;;;;;;;7.00;2.38;;;;;;;19.77;39.69;101614.69;5016130;28;20065;-66
2022/02/05 07:46:45;;;;;;;3.22;1.52;;;;;;;19.72;39.68;101611.66;5021452;28;20175;-64
2022/02/05 07:49:12;;;;;;;8.25;2.05;;;;;;;19.80;39.51;101618.81;5008781;28;20033;-63
2022/02/05 07:51:38;;;;;;;4.13;1.67;;;;;;;19.80;39.54;101616.16;5014975;28;20045;-63
2022/02/05 07:54:04;;;;;;;5.15;1.80;;;;;;;19.80;39.39;101614.34;5020134;28;20060;-64
2022/02/05 07:56:30;;;;;;;3.97;1.75;;;;;;;19.84;39.37;101614.84;5020559;28;20621;-66
2022/02/05 07:58:56;;;;;;;4.15;1.88;;;;;;;19.85;39.22;101609.41;5016249;28;20038;-66
2022/02/05 08:01:21;;;;;;;2.58;1.40;;;;;;;19.86;39.24;101618.97;5017124;28;20042;-66
2022/02/05 08:03:47;;;;;;;4.82;2.08;;;;;;;19.88;39.25;101626.75;5011339;28;20032;-65
2022/02/05 08:06:16;;;;;;;3.88;1.88;;;;;;;19.86;39.20;101621.63;5012134;28;20041;-66
2022/02/05 08:08:44;;;;;;;5.82;2.22;;;;;;;19.80;39.31;101619.63;5012342;28;20046;-65
2022/02/05 08:11:13;;;;;;;6.35;2.10;;;;;;;19.87;39.25;101620.63;5017279;28;20102;-65
2022/02/05 08:13:38;;;;;;;5.45;1.80;;;;;;;19.95;39.15;101614.56;5014649;28;20518;-65
2022/02/05 08:16:28;;;;;;;5.00;1.80;;;;;;;19.98;39.26;101614.22;5031560;28;20041;-66
2022/02/05 08:18:54;;;;;;;4.13;1.45;;;;;;;19.97;39.25;101622.34;5010449;28;20100;-65
2022/02/05 08:21:20;;;;;;;4.32;1.95;;;;;;;19.94;39.38;101620.00;5017491;28;20049;-65
2022/02/05 08:23:45;;;;;;;4.97;1.70;;;;;;;19.93;39.37;101611.25;5010776;28;20050;-65
2022/02/05 08:26:11;;;;;;;8.30;1.95;;;;;;;19.93;39.25;101608.63;5012197;28;20130;-65
2022/02/05 08:28:37;;;;;;;5.75;2.20;;;;;;;19.91;39.45;101626.41;5013218;28;20581;-65
2022/02/05 08:31:02;;;;;;;7.47;2.13;;;;;;;19.96;39.29;101621.50;5013654;28;20576;-61
2022/02/05 08:33:28;;;;;;;4.03;1.85;;;;;;;20.07;38.98;101629.13;5015389;28;20037;-61
2022/02/05 08:35:53;;;;;;;8.57;2.40;;;;;;;20.14;39.08;101629.31;5008382;28;20095;-60
2022/02/05 08:38:20;;;;;;;4.07;2.00;;;;;;;20.11;38.91;101633.13;5030116;28;20052;-60
2022/02/05 08:40:46;;;;;;;7.25;2.13;;;;;;;20.15;38.89;101639.72;5012638;28;20056;-60
2022/02/05 08:43:12;;;;;;;6.28;1.90;;;;;;;20.15;38.96;101642.38;5021702;28;20045;-60
2022/02/05 08:45:38;;;;;;;5.78;1.90;;;;;;;20.09;38.91;101639.53;5013126;28;20107;-60
2022/02/05 08:48:05;;;;;;;7.40;2.22;;;;;;;20.03;39.12;101640.19;5009662;28;20079;-61
2022/02/05 08:50:31;;;;;;;4.93;2.10;;;;;;;20.01;39.08;101637.69;5012277;28;20034;-60
2022/02/05 08:52:57;;;;;;;7.00;1.67;;;;;;;19.96;39.23;101641.81;5013066;28;20439;-60
2022/02/05 08:55:23;;;;;;;5.22;1.90;;;;;;;20.01;39.08;101647.44;5008530;28;20044;-62
2022/02/05 08:57:51;;;;;;;5.50;1.85;;;;;;;20.00;39.04;101643.16;4999205;28;20125;-62
2022/02/05 09:00:23;;;;;;;6.00;1.70;;;;;;;19.91;39.49;101651.03;5009966;28;20039;-62
2022/02/05 09:02:59;;;;;;;9.05;1.90;;;;;;;19.94;39.32;101651.72;5013727;28;20046;-60
2022/02/05 09:08:30;;;;;;;5.32;1.65;;;;;;;20.04;39.13;101653.22;5043729;28;20145;-61
2022/02/05 09:11:15;;;;;;;4.68;2.33;;;;;;;20.00;39.39;101657.19;5015117;28;20041;-60
2022/02/05 09:16:13;;;;;;;4.87;1.80;;;;;;;20.14;39.15;101666.34;5009586;28;20391;-63
2022/02/05 09:18:41;;;;;;;7.72;2.17;;;;;;;20.15;38.99;101660.06;5010599;28;20475;-62
2022/02/05 09:21:07;;;;;;;5.93;1.88;;;;;;;20.13;38.78;101654.94;5025790;28;20053;-62
2022/02/05 09:23:33;;;;;;;6.30;1.75;;;;;;;20.20;38.85;101663.03;5009725;28;20096;-61
2022/02/05 09:26:00;;;;;;;5.90;1.90;;;;;;;20.13;39.00;101660.22;5012584;28;20111;-62
2022/02/05 09:28:28;;;;;;;6.03;1.90;;;;;;;20.08;38.92;101661.66;5014406;28;20127;-60
2022/02/05 09:33:38;;;;;;;5.38;1.92;;;;;;;20.23;38.63;101660.88;5006213;28;20041;-60
2022/02/05 09:36:05;;;;;;;7.03;2.45;;;;;;;20.15;38.81;101655.59;5009259;28;20033;-60
2022/02/05 09:38:31;;;;;;;4.90;2.20;;;;;;;20.18;38.78;101652.63;5027139;28;20067;-60
2022/02/05 09:40:57;;;;;;;5.80;1.92;;;;;;;20.24;38.57;101656.41;5010676;28;20085;-60
2022/02/05 09:43:28;;;;;;;4.95;2.20;;;;;;;20.11;38.76;101629.66;5010679;28;20046;-60
2022/02/05 09:45:58;;;;;;;6.03;1.90;;;;;;;20.16;38.86;101649.31;5009649;28;20404;-63
2022/02/05 09:48:27;;;;;;;5.32;1.77;;;;;;;20.19;38.80;101648.16;5014480;28;20128;-62
2022/02/05 09:50:53;;;;;;;6.97;2.08;;;;;;;20.08;39.04;101654.56;5013746;28;20414;-61
2022/02/05 09:53:20;;;;;;;8.80;2.35;;;;;;;20.09;39.13;101652.75;5014375;28;20048;-62
2022/02/05 09:55:49;;;;;;;6.72;1.90;;;;;;;20.06;39.24;101659.19;5012520;28;20037;-62
2022/02/05 09:58:17;;;;;;;6.20;1.83;;;;;;;19.99;39.30;101649.44;5016307;28;20045;-61
2022/02/05 10:01:14;;;;;;;5.65;2.13;;;;;;;20.05;39.18;101654.06;5013786;28;20033;-62
2022/02/05 10:03:42;;;;;;;5.10;1.88;;;;;;;20.05;39.17;101643.50;5020069;28;20461;-62
2022/02/05 10:06:14;;;;;;;6.30;2.08;;;;;;;20.02;39.26;101651.75;5017567;28;20037;-62
2022/02/05 10:09:00;;;;;;;5.00;1.95;;;;;;;19.98;39.11;101661.81;5024151;28;20140;-64
2022/02/05 10:11:31;;;;;;;7.70;2.08;;;;;;;19.94;39.34;101657.84;5017052;28;20557;-64
2022/02/05 10:14:13;;;;;;;3.80;1.95;;;;;;;19.97;39.31;101654.06;5020836;28;20142;-64
2022/02/05 10:16:39;;;;;;;4.10;1.83;;;;;;;19.90;39.20;101648.56;5017917;28;20041;-62
2022/02/05 10:19:04;;;;;;;3.50;1.75;;;;;;;19.92;39.34;101665.09;5020035;28;20107;-62
2022/02/05 10:21:31;;;;;;;5.38;2.13;;;;;;;19.87;39.23;101665.56;5018175;28;20026;-62
2022/02/05 10:24:06;;;;;;;4.07;2.22;;;;;;;19.85;39.51;101646.41;5020973;28;20060;-63
2022/02/05 10:26:33;;;;;;;3.65;1.90;;;;;;;19.79;39.41;101646.22;5015413;28;20029;-62
2022/02/05 10:29:02;;;;;;;6.45;2.15;;;;;;;19.75;39.64;101642.22;5015737;28;20560;-61
2022/02/05 10:31:29;;;;;;;4.07;1.77;;;;;;;19.71;39.72;101641.72;5021222;28;20049;-62
2022/02/05 10:34:10;;;;;;;4.63;1.83;;;;;;;19.70;39.68;101649.81;5018806;28;20034;-62
2022/02/05 10:36:41;;;;;;;7.10;1.88;;;;;;;19.65;39.85;101644.19;5015627;28;20482;-62
2022/02/05 10:39:29;;;;;;;6.05;2.00;;;;;;;19.62;39.69;101642.69;5010858;28;20964;-62
2022/02/05 10:44:39;;;;;;;6.78;2.25;;;;;;;19.57;39.76;101642.34;5016615;28;20042;-62
2022/02/05 10:47:05;;;;;;;6.13;2.20;;;;;;;19.54;39.92;101642.63;5021886;28;20132;-62
2022/02/05 10:49:47;;;;;;;6.00;1.80;;;;;;;19.50;39.97;101644.75;5016096;28;20033;-62
2022/02/05 10:52:33;;;;;;;3.63;1.70;;;;;;;19.48;39.97;101636.16;5014661;28;20034;-62
2022/02/05 10:55:22;;;;;;;5.60;2.20;;;;;;;19.52;39.87;101641.94;5014881;28;20037;-62
2022/02/05 10:58:15;;;;;;;7.33;2.60;;;;;;;19.51;39.86;101645.56;5020566;28;20128;-62
2022/02/05 11:05:55;;;;;;;6.05;2.30;;;;;;;19.44;40.04;101645.38;5018147;28;20589;-62
2022/02/05 11:08:22;;;;;;;6.82;2.20;;;;;;;19.37;39.96;101641.69;5016282;28;20198;-62
2022/02/05 11:21:08;;;;;;;3.30;1.77;;;;;;;19.30;39.97;101633.56;5016162;28;20175;-64
2022/02/05 11:23:34;;;;;;;5.55;2.67;;;;;;;19.29;40.22;101633.72;5014237;28;20048;-64
2022/02/05 11:26:02;;;;;;;5.72;1.92;;;;;;;19.19;40.09;101631.19;5017159;28;20144;-62
2022/02/05 11:28:48;;;;;;;7.20;2.60;;;;;;;19.29;40.04;101625.81;5018515;28;20056;-62
2022/02/05 11:31:18;;;;;;;4.63;2.20;;;;;;;19.24;39.96;101636.84;5013643;28;20029;-62
2022/02/05 11:33:44;;;;;;;8.80;2.65;;;;;;;19.18;40.34;101632.19;5014000;28;20491;-64
2022/02/05 11:38:43;;;;;;;6.60;2.35;;;;;;;19.17;40.29;101617.31;5017970;28;20042;-62
2022/02/05 11:41:27;;;;;;;6.10;2.10;;;;;;;19.16;40.22;101625.41;5012111;28;20390;-62
2022/02/05 11:44:15;;;;;;;4.20;1.73;;;;;;;19.13;40.29;101613.34;5017555;28;20084;-62
2022/02/05 11:47:00;;;;;;;6.90;2.65;;;;;;;19.07;40.33;101613.16;5012264;28;20041;-62
2022/02/05 11:49:25;;;;;;;5.85;2.10;;;;;;;19.06;40.36;101604.41;5020547;28;20910;-62
2022/02/05 11:51:51;;;;;;;9.48;2.20;;;;;;;19.04;40.29;101608.19;5015179;28;20045;-62
2022/02/05 11:54:17;;;;;;;5.88;1.85;;;;;;;18.98;40.52;101607.78;5016068;28;20042;-62
2022/02/05 11:57:03;;;;;;;6.18;1.85;;;;;;;18.99;40.46;101604.16;5016808;28;20449;-62
2022/02/05 11:59:49;;;;;;;5.18;2.13;;;;;;;18.98;40.48;101613.06;5013659;28;20034;-62
2022/02/05 12:02:20;;;;;;;3.65;2.00;;;;;;;18.98;40.35;101607.78;5011780;28;20033;-62
2022/02/05 12:05:06;;;;;;;4.57;1.60;;;;;;;18.96;40.57;101619.50;5017906;28;20053;-62
2022/02/05 12:07:32;;;;;;;4.63;2.33;;;;;;;18.86;40.64;101595.03;5013942;28;20042;-62
2022/02/05 12:09:57;;;;;;;6.45;2.20;;;;;;;18.92;40.48;101616.34;5017940;28;20038;-62
2022/02/05 12:12:27;;;;;;;7.00;2.22;;;;;;;18.94;40.55;101603.81;5010963;28;20457;-62
2022/02/05 12:15:18;;;;;;;4.75;2.30;;;;;;;18.94;40.42;101598.53;5017136;28;20045;-62
2022/02/05 12:18:14;;;;;;;8.05;2.70;;;;;;;18.94;40.53;101597.72;5019429;28;20126;-62
2022/02/05 12:20:53;;;;;;;7.45;2.22;;;;;;;18.91;40.55;101596.22;5014829;28;20122;-62
2022/02/05 12:23:30;;;;;;;7.90;2.53;;;;;;;18.86;40.38;101585.31;5016089;28;20038;-62
2022/02/05 12:25:58;;;;;;;6.80;2.00;;;;;;;18.87;40.57;101591.41;5011029;28;20045;-62
2022/02/05 12:28:30;;;;;;;4.60;2.03;;;;;;;18.87;40.49;101583.50;5019796;28;20033;-62
2022/02/05 12:30:57;;;;;;;6.10;2.10;;;;;;;18.87;40.48;101575.56;5009556;28;20049;-62
2022/02/05 12:33:22;;;;;;;7.03;2.10;;;;;;;18.89;40.32;101563.88;5020338;28;20068;-64
2022/02/05 12:35:53;;;;;;;8.02;2.60;;;;;;;18.86;40.47;101564.19;5024849;28;20133;-64
2022/02/05 12:38:19;;;;;;;5.47;1.75;;;;;;;18.93;40.39;101556.47;5014560;28;20079;-64
2022/02/05 12:40:47;;;;;;;6.47;2.08;;;;;;;18.90;40.36;101554.16;5015444;28;20049;-64
2022/02/05 12:43:14;;;;;;;4.43;1.73;;;;;;;18.91;40.24;101546.06;5019549;28;20479;-65
2022/02/05 12:46:10;;;;;;;4.68;2.00;;;;;;;18.95;40.14;101539.50;5014470;28;20060;-64
2022/02/05 12:48:36;;;;;;;5.93;2.08;;;;;;;18.90;40.25;101543.59;5013359;28;20075;-64
2022/02/05 12:51:03;;;;;;;9.77;2.10;;;;;;;18.92;40.08;101526.63;5012678;28;20124;-63
2022/02/05 12:53:35;;;;;;;5.68;2.08;;;;;;;18.87;40.23;101525.44;5013858;28;20383;-64
2022/02/05 12:56:17;;;;;;;6.05;2.03;;;;;;;18.79;40.18;101512.19;5018093;28;20549;-64
2022/02/05 12:59:04;;;;;;;6.55;1.95;;;;;;;18.84;40.26;101534.47;5016459;28;20060;-64
2022/02/05 13:01:32;;;;;;;4.47;2.10;;;;;;;18.83;40.36;101518.78;5019552;28;20037;-64
2022/02/05 13:04:18;;;;;;;6.13;2.20;;;;;;;18.84;40.16;101512.53;5036784;28;20052;-64
2022/02/05 13:06:44;;;;;;;7.03;1.90;;;;;;;18.84;40.14;101510.72;5020471;28;20037;-64
2022/02/05 13:09:21;;;;;;;6.05;2.25;;;;;;;18.85;40.08;101503.63;5017137;28;20044;-64
2022/02/05 13:12:07;;;;;;;5.28;2.05;;;;;;;18.79;40.32;101499.00;5015782;28;20044;-64
2022/02/05 13:15:17;;;;;;;6.10;2.28;;;;;;;18.84;40.33;101507.25;5019331;28;20064;-64
2022/02/05 13:26:03;;;;;;;6.88;2.03;;;;;;;18.78;40.26;101487.59;5019599;28;20087;-64
2022/02/05 13:39:53;;;;;;;7.28;2.97;;;;;;;18.79;40.05;101481.34;5019936;28;20032;-64
2022/02/05 13:45:10;;;;;;;6.22;2.03;;;;;;;18.78;40.05;101473.59;5013422;28;20047;-62
2022/02/05 13:47:37;;;;;;;7.63;2.03;;;;;;;18.76;40.30;101476.38;5009481;28;20041;-64
2022/02/05 13:50:21;;;;;;;7.45;2.15;;;;;;;18.79;40.32;101473.44;5014684;28;20092;-64
2022/02/05 13:52:52;;;;;;;4.50;1.88;;;;;;;18.82;40.02;101475.75;5015310;28;20483;-66
2022/02/05 13:55:25;;;;;;;9.93;2.85;;;;;;;19.04;39.79;101469.09;5014994;28;20502;-64
2022/02/05 13:57:55;;;;;;;8.82;2.40;;;;;;;19.06;40.06;101464.50;5010103;28;20044;-63
2022/02/05 14:00:20;;;;;;;8.77;2.50;;;;;;;19.19;39.60;101461.38;5014061;28;20528;-63
2022/02/05 14:02:57;;;;;;;10.38;2.47;;;;;;;19.21;39.60;101469.97;5013535;28;20068;-63
2022/02/05 14:05:22;;;;;;;6.47;2.42;;;;;;;19.15;39.79;101460.06;5012689;28;20601;-63
2022/02/05 14:07:48;;;;;;;9.32;2.13;;;;;;;19.35;39.50;101465.88;5012700;28;20053;-63
2022/02/05 14:10:19;;;;;;;4.30;2.30;;;;;;;19.56;39.13;101459.19;5015143;28;20037;-62
2022/02/05 14:12:50;;;;;;;12.63;3.28;;;;;;;19.73;38.79;101464.50;5020052;28;20052;-63
2022/02/05 14:15:17;;;;;;;4.32;2.08;;;;;;;19.83;38.79;101462.56;5015671;28;20076;-65
2022/02/05 14:17:45;;;;;;;6.45;2.30;;;;;;;19.83;39.35;101452.81;5015754;28;20152;-66
2022/02/05 14:20:13;;;;;;;6.53;2.22;;;;;;;19.90;39.53;101453.78;5013590;28;20060;-66
2022/02/05 14:22:42;;;;;;;6.68;2.10;;;;;;;19.99;39.17;101454.63;5016521;28;20037;-66
2022/02/05 14:25:15;;;;;;;9.00;2.40;;;;;;;19.99;39.52;101445.88;5013539;28;20034;-66
2022/02/05 14:28:00;;;;;;;8.45;2.25;;;;;;;19.95;39.28;101445.38;5019444;28;20543;-66
2022/02/05 14:30:28;;;;;;;7.35;2.53;;;;;;;19.88;39.42;101441.72;5016464;28;20033;-66
2022/02/05 14:32:54;;;;;;;5.38;2.00;;;;;;;19.81;39.52;101438.09;5015844;28;21389;-66